KLGF/LGF METAR and TAF weather

Enter ICAO airport designator
Station Type Date Time Source
KLGF METAR 2021/07/28 03:58 UTC NOAA

KLGF 280358Z AUTO 22014KT 10SM CLR 39/13 A2985 RMK AO2 LTG DSNT NE SLPNO T03890130 $


Station Type Date Time Source
KLGF Decoded METAR 2021/07/28 03:58 UTC NOAA

Station name not available
Jul 27, 2021 - 11:58 PM EDT / 2021.07.28 0358 UTC
Wind: from the SW (220 degrees) at 16 MPH (14 KT):0
Visibility: 10 mile(s):0
Sky conditions: clear
Weather: Lightning observed
Temperature: 102.0 F (38.9 C)
Heat index: 100.6 F (38.1 C):1
Dew Point: 55.4 F (13.0 C)
Relative Humidity: 21%
Pressure (altimeter): 29.85 in. Hg (1010 hPa)
ob: KLGF 280358Z AUTO 22014KT 10SM CLR 39/13 A2985 RMK AO2 LTG DSNT NE SLPNO T03890130
cycle: 4

Station Type Date Time Source
KLGF TAF UTC NOAA

Error!

Example: see airport list